createdAt,value
2024-01-24T00:00:57.717Z,100467.63
2024-01-24T00:03:24.687Z,100465.31
2024-01-24T00:05:51.797Z,100473.94
2024-01-24T00:08:18.457Z,100430.28
2024-01-24T00:10:44.892Z,100445.84
2024-01-24T00:13:11.330Z,100443.22
2024-01-24T00:15:37.848Z,100423.63
2024-01-24T00:18:04.802Z,100437.25
2024-01-24T00:20:31.249Z,100436.56
2024-01-24T00:22:57.619Z,100427.09
2024-01-24T00:25:25.215Z,100409.34
2024-01-24T00:27:51.637Z,100412.16
2024-01-24T00:30:18.183Z,100406.19
2024-01-24T00:32:44.591Z,100389.56
2024-01-24T00:35:10.996Z,100388.91
2024-01-24T00:37:37.397Z,100373.66
2024-01-24T00:40:04.516Z,100396.88
2024-01-24T00:42:30.951Z,100382.94
2024-01-24T00:44:57.423Z,100358.22
2024-01-24T00:47:23.972Z,100358.69
2024-01-24T00:49:50.479Z,100358.19
2024-01-24T00:52:16.932Z,100356.53
2024-01-24T00:54:43.387Z,100351.91
2024-01-24T00:57:09.962Z,100358.69
2024-01-24T00:59:36.405Z,100309.44
2024-01-24T01:02:03.740Z,100305.09
2024-01-24T01:04:30.272Z,100293.84
2024-01-24T01:06:56.762Z,100279.72
2024-01-24T01:09:23.200Z,100286.50
2024-01-24T01:11:49.648Z,100290.84
2024-01-24T01:14:16.046Z,100272.59
2024-01-24T01:16:42.470Z,100271.09
2024-01-24T01:19:09.070Z,100261.31
2024-01-24T01:21:36.016Z,100273.25
2024-01-24T01:24:02.590Z,100266.78
2024-01-24T01:26:29.122Z,100260.31
2024-01-24T01:28:55.827Z,100231.97
2024-01-24T01:31:22.339Z,100254.81
2024-01-24T01:33:48.821Z,100246.41
2024-01-24T01:36:22.715Z,100229.13
2024-01-24T01:38:50.437Z,100196.63
2024-01-24T01:41:16.897Z,100186.84
2024-01-24T01:43:44.745Z,100203.75
2024-01-24T01:46:18.371Z,100181.03
2024-01-24T01:48:44.902Z,100203.75
2024-01-24T01:51:12.534Z,100190.47
2024-01-24T01:53:40.134Z,100172.22
2024-01-24T01:56:10.324Z,100183.00
2024-01-24T01:58:38.491Z,100187.84
2024-01-24T02:01:07.321Z,100163.25
2024-01-24T02:03:34.228Z,100147.38
2024-01-24T02:06:01.910Z,100164.44
2024-01-24T02:08:28.544Z,100147.66
2024-01-24T02:10:56.614Z,100125.63
2024-01-24T02:13:23.748Z,100144.16
2024-01-24T02:15:50.412Z,100136.50
2024-01-24T02:18:16.970Z,100126.41
2024-01-24T02:20:43.989Z,100127.59
2024-01-24T02:23:12.960Z,100123.59
2024-01-24T02:25:39.382Z,100105.88
2024-01-24T02:28:06.341Z,100098.91
2024-01-24T02:30:39.191Z,100093.75
2024-01-24T02:33:05.701Z,100086.09
2024-01-24T02:35:32.105Z,100077.72
2024-01-24T02:37:58.547Z,100096.28
2024-01-24T02:40:24.989Z,100065.97
2024-01-24T02:42:51.471Z,100085.47
2024-01-24T02:45:17.909Z,100073.75
2024-01-24T02:47:44.352Z,100031.09
2024-01-24T02:50:14.087Z,100029.91
2024-01-24T02:52:41.428Z,100047.88
2024-01-24T02:55:08.479Z,100060.63
2024-01-24T02:57:46.270Z,100024.59
2024-01-24T03:00:14.151Z,100024.19
2024-01-24T03:02:40.916Z,100031.88
2024-01-24T03:05:10.123Z,99997.56
2024-01-24T03:07:37.510Z,100019.88
2024-01-24T03:10:04.184Z,99982.34
2024-01-24T03:12:31.219Z,99978.81
2024-01-24T03:14:58.136Z,99974.41
2024-01-24T03:17:24.763Z,99983.66
2024-01-24T03:19:51.444Z,99994.78
2024-01-24T03:22:18.630Z,99959.09
2024-01-24T03:24:45.102Z,99968.75
2024-01-24T03:27:12.209Z,99961.38
2024-01-24T03:29:41.650Z,99920.00
2024-01-24T03:32:08.101Z,99930.38
2024-01-24T03:34:34.516Z,99927.72
2024-01-24T03:37:00.982Z,99944.78
2024-01-24T03:39:28.718Z,99909.13
2024-01-24T03:41:55.483Z,99894.44
2024-01-24T03:44:21.915Z,99919.03
2024-01-24T03:46:48.359Z,99866.94
2024-01-24T03:49:14.944Z,99914.56
2024-01-24T03:51:41.670Z,99921.06
2024-01-24T03:54:08.094Z,99920.66
2024-01-24T03:56:34.549Z,99946.41
2024-01-24T03:59:00.940Z,99923.06
2024-01-24T04:01:27.421Z,99920.69
2024-01-24T04:03:53.969Z,99930.91
2024-01-24T04:06:20.501Z,99932.41
2024-01-24T04:08:47.259Z,99890.44
2024-01-24T04:11:13.729Z,99914.84
2024-01-24T04:13:43.480Z,99929.13
2024-01-24T04:16:10.006Z,99899.94
2024-01-24T04:18:36.509Z,99901.91
2024-01-24T04:21:08.365Z,99868.69
2024-01-24T04:23:35.501Z,99874.88
2024-01-24T04:26:08.168Z,99897.38
2024-01-24T04:28:34.669Z,99866.50
2024-01-24T04:31:01.334Z,99861.56
2024-01-24T04:33:28.298Z,99831.94
2024-01-24T04:35:56.503Z,99864.19
2024-01-24T04:38:23.554Z,99858.78
2024-01-24T04:40:50.044Z,99877.56
2024-01-24T04:43:16.917Z,99862.09
2024-01-24T04:45:43.480Z,99842.66
2024-01-24T04:48:09.951Z,99851.50
2024-01-24T04:50:36.623Z,99888.53
2024-01-24T04:53:03.116Z,99845.38
2024-01-24T04:55:29.588Z,99838.56
2024-01-24T04:57:56.123Z,99868.72
2024-01-24T05:00:22.689Z,99877.78
2024-01-24T05:02:49.307Z,99880.22
2024-01-24T05:05:15.822Z,99844.81
2024-01-24T05:07:42.340Z,99810.94
2024-01-24T05:10:09.375Z,99804.72
2024-01-24T05:12:35.829Z,99816.47
2024-01-24T05:15:02.327Z,99826.84
2024-01-24T05:17:28.885Z,99802.69
2024-01-24T05:19:55.514Z,99802.59
2024-01-24T05:22:22.716Z,99796.56
2024-01-24T05:24:49.249Z,99797.66
2024-01-24T05:27:16.580Z,99825.66
2024-01-24T05:29:46.441Z,99805.31
2024-01-24T05:32:12.985Z,99808.41
2024-01-24T05:34:39.560Z,99785.38
2024-01-24T05:37:06.138Z,99785.97
2024-01-24T05:39:32.613Z,99802.28
2024-01-24T05:42:00.066Z,99763.63
2024-01-24T05:44:26.500Z,99823.41
2024-01-24T05:46:52.933Z,99806.78
2024-01-24T05:49:19.814Z,99793.66
2024-01-24T05:51:46.499Z,99780.69
2024-01-24T05:54:13.187Z,99780.06
2024-01-24T05:56:40.227Z,99792.44
2024-01-24T05:59:06.846Z,99795.50
2024-01-24T06:01:33.346Z,99763.44
2024-01-24T06:03:59.897Z,99774.94
2024-01-24T06:06:26.744Z,99819.34
2024-01-24T06:08:53.804Z,99779.44
2024-01-24T06:11:20.360Z,99775.34
2024-01-24T06:13:46.819Z,99760.53
2024-01-24T06:16:13.414Z,99735.63
2024-01-24T06:18:39.999Z,99755.56
2024-01-24T06:21:06.558Z,99735.81
2024-01-24T06:23:32.973Z,99781.63
2024-01-24T06:25:59.639Z,99774.56
2024-01-24T06:28:26.062Z,99720.25
2024-01-24T06:30:54.169Z,99764.56
2024-01-24T06:33:22.850Z,99770.47
2024-01-24T06:36:07.748Z,99728.53
2024-01-24T06:38:34.659Z,99775.00
2024-01-24T06:41:10.194Z,99733.22
2024-01-24T06:43:51.600Z,99749.44
2024-01-24T06:46:20.957Z,99747.63
2024-01-24T06:48:47.614Z,99733.97
2024-01-24T06:51:14.677Z,99711.75
2024-01-24T06:53:41.193Z,99764.31
2024-01-24T06:56:07.760Z,99735.94
2024-01-24T06:58:34.867Z,99756.09
2024-01-24T07:01:01.320Z,99758.13
2024-01-24T07:03:27.872Z,99753.34
2024-01-24T07:05:54.364Z,99720.31
2024-01-24T07:08:20.958Z,99747.47
2024-01-24T07:10:47.395Z,99771.50
2024-01-24T07:13:13.871Z,99711.69
2024-01-24T07:15:41.961Z,99749.72
2024-01-24T07:18:08.525Z,99787.59
2024-01-24T07:20:34.999Z,99756.78
2024-01-24T07:23:02.697Z,99732.28
2024-01-24T07:25:29.107Z,99789.81
2024-01-24T07:27:55.517Z,99731.03
2024-01-24T07:30:23.605Z,99758.97
2024-01-24T07:32:50.627Z,99738.09
2024-01-24T07:35:17.793Z,99749.78
2024-01-24T07:37:45.814Z,99707.22
2024-01-24T07:40:15.386Z,99709.47
2024-01-24T07:42:43.708Z,99704.63
2024-01-24T07:45:10.716Z,99691.22
2024-01-24T07:47:37.324Z,99719.00
2024-01-24T07:50:05.074Z,99779.59
2024-01-24T07:52:37.168Z,99740.09
2024-01-24T07:55:08.481Z,99755.06
2024-01-24T07:57:35.348Z,99666.91
2024-01-24T08:00:02.369Z,99709.41
2024-01-24T08:02:28.840Z,99739.06
2024-01-24T08:04:57.145Z,99726.44
2024-01-24T08:07:23.764Z,99757.84
2024-01-24T08:09:50.587Z,99722.03
2024-01-24T08:12:17.537Z,99768.13
2024-01-24T08:14:44.104Z,99714.13
2024-01-24T08:17:12.070Z,99753.38
2024-01-24T08:19:39.801Z,99768.41
2024-01-24T08:22:06.879Z,99753.16
2024-01-24T08:24:33.597Z,99770.47
2024-01-24T08:27:00.446Z,99804.50
2024-01-24T08:29:35.989Z,99783.13
2024-01-24T08:32:05.310Z,99802.28
2024-01-24T08:34:31.967Z,99798.28
2024-01-24T08:36:59.204Z,99778.72
2024-01-24T08:39:25.771Z,99795.81
2024-01-24T08:41:52.200Z,99793.81
2024-01-24T08:44:19.307Z,99811.81
2024-01-24T08:46:45.781Z,99793.75
2024-01-24T08:49:14.171Z,99799.31
2024-01-24T08:51:41.066Z,99805.94
2024-01-24T08:54:08.178Z,99811.34
2024-01-24T08:56:35.237Z,99813.38
2024-01-24T08:59:01.736Z,99804.53
2024-01-24T09:01:31.283Z,99783.50
2024-01-24T09:03:59.242Z,99764.31
2024-01-24T09:06:26.402Z,99785.66
2024-01-24T09:08:53.865Z,99789.78
2024-01-24T09:11:21.778Z,99781.25
2024-01-24T09:13:48.877Z,99779.09
2024-01-24T09:16:18.133Z,99776.66
2024-01-24T09:18:44.944Z,99785.22
2024-01-24T09:21:11.805Z,99770.69
2024-01-24T09:23:38.331Z,99769.81
2024-01-24T09:26:09.036Z,99771.41
2024-01-24T09:28:35.566Z,99772.25
2024-01-24T09:31:02.161Z,99791.16
2024-01-24T09:33:28.764Z,99786.94
2024-01-24T09:35:56.104Z,99780.44
2024-01-24T09:38:49.319Z,99770.03
2024-01-24T09:41:20.309Z,99781.09
2024-01-24T09:43:48.201Z,99783.50
2024-01-24T09:46:19.674Z,99816.13
2024-01-24T09:48:47.762Z,99768.75
2024-01-24T09:51:14.760Z,99780.19
2024-01-24T09:53:45.516Z,99767.34
2024-01-24T09:56:13.433Z,99772.25
2024-01-24T09:58:39.928Z,99787.69
2024-01-24T10:01:11.538Z,99792.38
2024-01-24T10:03:39.011Z,99801.00
2024-01-24T10:06:09.715Z,99810.69
2024-01-24T10:08:36.503Z,99808.47
2024-01-24T10:11:03.062Z,99796.09
2024-01-24T10:13:31.617Z,99810.09
2024-01-24T10:16:01.158Z,99810.19
2024-01-24T10:18:37.587Z,99818.38
2024-01-24T10:21:06.184Z,99789.47
2024-01-24T10:23:35.107Z,99790.28
2024-01-24T10:26:01.910Z,99758.59
2024-01-24T10:28:28.646Z,99824.94
2024-01-24T10:30:55.659Z,99810.69
2024-01-24T10:33:23.809Z,99806.78
2024-01-24T10:35:52.667Z,99804.19
2024-01-24T10:38:23.300Z,99808.97
2024-01-24T10:40:55.665Z,99839.34
2024-01-24T10:43:24.285Z,99845.44
2024-01-24T10:45:52.798Z,99861.53
2024-01-24T10:48:20.203Z,99911.06
2024-01-24T10:50:48.101Z,99912.00
2024-01-24T10:53:16.064Z,99910.25
2024-01-24T10:55:42.832Z,99879.66
2024-01-24T10:58:13.208Z,99921.94
2024-01-24T11:00:44.184Z,99899.53
2024-01-24T11:03:11.329Z,99901.81
2024-01-24T11:05:43.358Z,99894.91
2024-01-24T11:08:35.921Z,99904.53
2024-01-24T11:11:12.039Z,99906.16
2024-01-24T11:13:38.661Z,99912.97
2024-01-24T11:16:27.197Z,99892.91
2024-01-24T11:19:00.965Z,99899.84
2024-01-24T11:21:33.493Z,99895.16
2024-01-24T11:24:00.343Z,99907.03
2024-01-24T11:26:26.710Z,99918.78
2024-01-24T11:29:06.453Z,99924.25
2024-01-24T11:31:41.873Z,99934.13
2024-01-24T11:34:12.955Z,99910.09
2024-01-24T11:36:52.254Z,99911.72
2024-01-24T11:39:31.976Z,99915.34
2024-01-24T11:42:35.287Z,99924.00
2024-01-24T11:45:18.631Z,99911.84
2024-01-24T11:47:46.032Z,99919.63
2024-01-24T11:50:13.000Z,99925.44
2024-01-24T11:52:46.037Z,99929.38
2024-01-24T11:55:13.153Z,99905.28
2024-01-24T11:57:39.950Z,99926.53
2024-01-24T12:00:10.768Z,99903.72
2024-01-24T12:02:38.055Z,99915.75
2024-01-24T12:05:11.059Z,99923.81
2024-01-24T12:07:38.226Z,99929.59
2024-01-24T12:10:08.947Z,99928.13
2024-01-24T12:12:36.486Z,99939.00
2024-01-24T12:15:03.935Z,99918.97
2024-01-24T12:17:30.590Z,99939.59
2024-01-24T12:19:59.476Z,99962.41
2024-01-24T12:22:27.850Z,99967.06
2024-01-24T12:24:55.541Z,99936.59
2024-01-24T12:27:22.548Z,99948.31
2024-01-24T12:29:56.526Z,99955.97
2024-01-24T12:32:23.613Z,99937.59
2024-01-24T12:34:50.732Z,99934.81
2024-01-24T12:37:22.638Z,99967.00
2024-01-24T12:39:56.522Z,99948.91
2024-01-24T12:42:24.238Z,99979.34
2024-01-24T12:45:02.566Z,99990.69
2024-01-24T12:47:29.769Z,99961.22
2024-01-24T12:49:57.156Z,99980.78
2024-01-24T12:52:24.015Z,99984.88
2024-01-24T12:54:50.837Z,99978.03
2024-01-24T12:57:17.302Z,100012.00
2024-01-24T12:59:43.859Z,100014.38
2024-01-24T13:02:13.523Z,99979.63
2024-01-24T13:04:47.202Z,99993.38
2024-01-24T13:07:14.311Z,99996.25
2024-01-24T13:09:49.146Z,99990.75
2024-01-24T13:12:21.116Z,99992.16
2024-01-24T13:14:47.932Z,99992.59
2024-01-24T13:17:14.462Z,99996.09
2024-01-24T13:19:41.114Z,99991.75
2024-01-24T13:22:07.816Z,100000.97
2024-01-24T13:24:35.463Z,100010.41
2024-01-24T13:27:02.280Z,99990.06
2024-01-24T13:29:28.832Z,99985.78
2024-01-24T13:31:56.339Z,100010.84
2024-01-24T13:34:22.816Z,100012.78
2024-01-24T13:36:54.855Z,100014.88
2024-01-24T13:39:23.884Z,100040.28
2024-01-24T13:41:50.435Z,100006.75
2024-01-24T13:44:17.196Z,100029.44
2024-01-24T13:46:45.492Z,100046.47
2024-01-24T13:54:40.670Z,100046.28
2024-01-24T14:08:07.165Z,100067.72
2024-01-24T14:19:49.368Z,100083.53
2024-01-24T14:22:21.176Z,100088.75
2024-01-24T14:24:49.362Z,100116.00
2024-01-24T14:30:07.161Z,100123.38
2024-01-24T14:32:35.032Z,100130.81
2024-01-24T14:35:01.633Z,100125.53
2024-01-24T14:37:30.095Z,100121.97
2024-01-24T14:39:59.742Z,100139.63
2024-01-24T14:42:26.437Z,100121.88
2024-01-24T14:44:53.000Z,100132.75
2024-01-24T14:47:20.095Z,100115.78
2024-01-24T14:49:47.241Z,100138.56
2024-01-24T14:52:14.182Z,100123.28
2024-01-24T14:54:43.792Z,100131.91
2024-01-24T14:57:10.394Z,100118.41
2024-01-24T14:59:36.854Z,100148.13
2024-01-24T15:02:08.288Z,100169.78
2024-01-24T15:04:37.574Z,100156.25
2024-01-24T15:07:07.592Z,100154.03
2024-01-24T15:09:35.078Z,100173.00
2024-01-24T15:12:03.272Z,100162.34
2024-01-24T15:14:29.780Z,100187.13
2024-01-24T15:16:56.278Z,100203.69
2024-01-24T15:19:23.245Z,100183.88
2024-01-24T15:21:50.818Z,100182.28
2024-01-24T15:24:17.977Z,100192.34
2024-01-24T15:26:47.386Z,100207.31
2024-01-24T15:29:14.040Z,100170.78
2024-01-24T15:31:40.570Z,100167.56
2024-01-24T15:34:08.031Z,100164.69
2024-01-24T15:36:35.268Z,100166.34
2024-01-24T15:39:02.246Z,100171.66
2024-01-24T15:41:29.262Z,100184.72
2024-01-24T15:43:57.437Z,100204.28
2024-01-24T15:46:26.267Z,100194.91
2024-01-24T15:48:53.045Z,100181.38
2024-01-24T15:51:19.935Z,100187.09
2024-01-24T15:53:46.484Z,100190.41
2024-01-24T15:56:13.157Z,100186.91
2024-01-24T15:58:40.254Z,100191.50
2024-01-24T16:01:07.137Z,100192.59
2024-01-24T16:03:40.611Z,100197.13
2024-01-24T16:06:07.587Z,100200.44
2024-01-24T16:08:34.839Z,100200.25
2024-01-24T16:11:03.703Z,100209.78
2024-01-24T16:13:30.442Z,100201.06
2024-01-24T16:15:57.554Z,100206.94
2024-01-24T16:18:24.194Z,100206.94
2024-01-24T16:20:50.733Z,100226.72
2024-01-24T16:23:17.533Z,100210.97
2024-01-24T16:25:44.099Z,100232.09
2024-01-24T16:28:12.753Z,100240.66
2024-01-24T16:30:44.599Z,100242.59
2024-01-24T16:33:11.655Z,100273.00
2024-01-24T16:35:40.667Z,100241.13
2024-01-24T16:38:07.219Z,100278.91
2024-01-24T16:40:33.710Z,100267.69
2024-01-24T16:43:00.334Z,100254.28
2024-01-24T16:45:27.084Z,100253.13
2024-01-24T16:47:53.974Z,100254.63
2024-01-24T16:50:21.015Z,100249.19
2024-01-24T16:52:47.872Z,100265.84
2024-01-24T16:55:15.647Z,100262.91
2024-01-24T16:57:42.403Z,100256.56
2024-01-24T17:00:10.294Z,100279.47
2024-01-24T17:02:42.830Z,100271.72
2024-01-24T17:05:16.460Z,100275.88
2024-01-24T17:07:42.983Z,100282.84
2024-01-24T17:10:09.917Z,100269.06
2024-01-24T17:12:36.976Z,100285.38
2024-01-24T17:15:03.539Z,100287.47
2024-01-24T17:17:29.969Z,100273.75
2024-01-24T17:19:57.363Z,100287.75
2024-01-24T17:22:25.084Z,100288.56
2024-01-24T17:24:51.697Z,100288.94
2024-01-24T17:27:18.216Z,100287.03
2024-01-24T17:29:46.575Z,100303.84
2024-01-24T17:32:13.386Z,100312.50
2024-01-24T17:34:41.919Z,100294.09
2024-01-24T17:37:09.006Z,100297.78
2024-01-24T17:43:08.440Z,100308.63
2024-01-24T17:45:35.396Z,100302.66
2024-01-24T17:48:02.105Z,100325.72
2024-01-24T17:50:28.897Z,100323.97
2024-01-24T17:52:55.786Z,100337.94
2024-01-24T17:55:23.392Z,100331.22
2024-01-24T17:57:50.074Z,100344.13
2024-01-24T18:00:20.384Z,100349.63
2024-01-24T18:02:46.880Z,100354.06
2024-01-24T18:05:16.692Z,100364.41
2024-01-24T18:07:43.231Z,100379.69
2024-01-24T18:10:10.541Z,100363.84
2024-01-24T18:12:37.204Z,100375.25
2024-01-24T18:15:04.684Z,100365.78
2024-01-24T18:17:31.745Z,100381.34
2024-01-24T18:19:58.687Z,100390.16
2024-01-24T18:22:25.180Z,100385.56
2024-01-24T18:24:51.762Z,100395.44
2024-01-24T18:27:18.540Z,100383.84
2024-01-24T18:29:45.952Z,100408.91
2024-01-24T18:32:14.045Z,100389.72
2024-01-24T18:34:40.738Z,100402.56
2024-01-24T18:37:09.018Z,100403.16
2024-01-24T18:39:35.816Z,100406.91
2024-01-24T18:42:02.527Z,100410.66
2024-01-24T18:44:30.378Z,100401.19
2024-01-24T18:46:57.720Z,100413.41
2024-01-24T18:49:24.776Z,100408.53
2024-01-24T18:51:51.731Z,100402.72
2024-01-24T18:54:18.815Z,100419.19
2024-01-24T18:56:45.563Z,100408.06
2024-01-24T18:59:12.288Z,100406.88
2024-01-24T19:01:41.064Z,100406.03
2024-01-24T19:04:08.079Z,100412.91
2024-01-24T19:06:35.204Z,100426.41
2024-01-24T19:09:02.755Z,100421.19
2024-01-24T19:11:32.580Z,100417.56
2024-01-24T19:13:59.329Z,100429.47
2024-01-24T19:16:26.938Z,100440.13
2024-01-24T19:18:53.947Z,100432.97
2024-01-24T19:21:20.534Z,100450.72
2024-01-24T19:23:47.088Z,100445.25
2024-01-24T19:26:14.151Z,100458.03
2024-01-24T19:28:43.728Z,100432.88
2024-01-24T19:31:11.483Z,100457.72
2024-01-24T19:33:41.148Z,100455.00
2024-01-24T19:36:08.329Z,100468.31
2024-01-24T19:38:36.356Z,100440.03
2024-01-24T19:41:03.552Z,100433.72
2024-01-24T19:43:30.355Z,100439.31
2024-01-24T19:45:57.187Z,100442.78
2024-01-24T19:48:24.612Z,100452.97
2024-01-24T19:50:51.269Z,100445.47
2024-01-24T19:53:23.584Z,100432.50
2024-01-24T19:55:54.692Z,100436.16
2024-01-24T20:02:31.777Z,100467.94
2024-01-24T20:04:58.385Z,100433.59
2024-01-24T20:07:33.652Z,100430.59
2024-01-24T20:10:06.482Z,100427.81
2024-01-24T20:12:35.876Z,100415.22
2024-01-24T20:15:20.750Z,100449.25
2024-01-24T20:17:56.781Z,100425.72
2024-01-24T20:20:24.697Z,100477.78
2024-01-24T20:23:00.150Z,100456.69
2024-01-24T20:25:27.381Z,100437.63
2024-01-24T20:27:55.182Z,100473.31
2024-01-24T20:30:26.280Z,100449.13
2024-01-24T20:33:01.242Z,100448.78
2024-01-24T20:35:36.615Z,100443.03
2024-01-24T20:40:55.405Z,100492.06
2024-01-24T20:43:22.055Z,100489.91
2024-01-24T20:46:00.890Z,100468.47
2024-01-24T20:48:29.803Z,100475.75
2024-01-24T20:50:56.534Z,100499.03
2024-01-24T20:53:23.042Z,100507.84
2024-01-24T20:55:52.436Z,100507.66
2024-01-24T20:58:18.915Z,100493.88
2024-01-24T21:00:45.506Z,100508.81
2024-01-24T21:03:12.284Z,100513.25
2024-01-24T21:05:39.092Z,100525.19
2024-01-24T21:08:06.780Z,100504.78
2024-01-24T21:10:34.458Z,100518.09
2024-01-24T21:13:04.215Z,100510.13
2024-01-24T21:15:31.104Z,100504.81
2024-01-24T21:17:59.965Z,100507.81
2024-01-24T21:20:26.788Z,100507.00
2024-01-24T21:22:53.607Z,100490.69
2024-01-24T21:25:20.364Z,100519.31
2024-01-24T21:27:46.925Z,100500.69
2024-01-24T21:30:18.260Z,100496.56
2024-01-24T21:32:45.056Z,100500.69
2024-01-24T21:35:14.530Z,100496.38
2024-01-24T21:37:40.973Z,100501.34
2024-01-24T21:40:08.552Z,100511.47
2024-01-24T21:42:37.828Z,100478.56
2024-01-24T21:45:04.856Z,100490.88
2024-01-24T21:47:31.365Z,100498.31
2024-01-24T21:49:57.936Z,100473.25
2024-01-24T21:52:24.953Z,100485.19
2024-01-24T21:54:55.335Z,100480.56
2024-01-24T21:57:21.801Z,100478.75
2024-01-24T21:59:48.274Z,100521.94
2024-01-24T22:02:14.821Z,100499.28
2024-01-24T22:04:41.445Z,100480.19
2024-01-24T22:07:08.013Z,100473.38
2024-01-24T22:09:34.515Z,100483.69
2024-01-24T22:12:02.296Z,100500.13
2024-01-24T22:14:29.021Z,100483.16
2024-01-24T22:16:56.458Z,100486.00
2024-01-24T22:19:25.851Z,100471.69
2024-01-24T22:21:52.583Z,100500.91
2024-01-24T22:24:20.691Z,100497.13
2024-01-24T22:26:48.582Z,100505.59
2024-01-24T22:29:15.188Z,100495.97
2024-01-24T22:31:41.921Z,100506.44
2024-01-24T22:34:14.648Z,100504.28
2024-01-24T22:36:41.493Z,100512.56
2024-01-24T22:39:08.017Z,100481.31
2024-01-24T22:41:34.731Z,100498.13
2024-01-24T22:44:01.189Z,100506.94
2024-01-24T22:46:28.276Z,100530.88
2024-01-24T22:48:56.573Z,100515.41
2024-01-24T22:51:23.301Z,100535.19
2024-01-24T22:53:49.732Z,100530.34
2024-01-24T22:56:16.250Z,100543.50
2024-01-24T22:58:42.769Z,100520.72
2024-01-24T23:01:09.312Z,100553.78
2024-01-24T23:03:36.004Z,100539.84
2024-01-24T23:06:02.537Z,100554.16
2024-01-24T23:08:29.011Z,100546.88
2024-01-24T23:10:55.581Z,100545.22
2024-01-24T23:13:22.150Z,100575.97
2024-01-24T23:15:48.897Z,100539.72
2024-01-24T23:18:18.129Z,100528.41
2024-01-24T23:20:45.150Z,100552.19
2024-01-24T23:23:12.485Z,100540.69
2024-01-24T23:25:38.926Z,100535.88
2024-01-24T23:28:05.929Z,100516.91
2024-01-24T23:30:32.448Z,100536.50
2024-01-24T23:32:59.577Z,100535.50
2024-01-24T23:35:26.691Z,100540.88
2024-01-24T23:37:58.967Z,100539.84
2024-01-24T23:40:25.622Z,100540.69
2024-01-24T23:42:52.364Z,100546.16
2024-01-24T23:45:21.264Z,100517.22
2024-01-24T23:47:47.936Z,100534.38
2024-01-24T23:50:15.071Z,100530.75
2024-01-24T23:52:42.033Z,100539.03
2024-01-24T23:55:08.952Z,100543.38
2024-01-24T23:57:35.524Z,100542.03
